sensor_id;sensor_type;location;lat;lon;timestamp;P1;durP1;ratioP1;P2;durP2;ratioP2
19879;SDS011;10102;50.828;4.416;2023-08-30T00:00:40;7.72;;;4.35;;
19879;SDS011;10102;50.828;4.416;2023-08-30T00:03:06;5.32;;;3.70;;
19879;SDS011;10102;50.828;4.416;2023-08-30T00:05:33;5.47;;;3.33;;
19879;SDS011;10102;50.828;4.416;2023-08-30T00:07:58;7.13;;;4.28;;
19879;SDS011;10102;50.828;4.416;2023-08-30T00:10:24;4.20;;;3.20;;
19879;SDS011;10102;50.828;4.416;2023-08-30T00:12:50;7.88;;;3.60;;
19879;SDS011;10102;50.828;4.416;2023-08-30T00:15:16;10.32;;;3.85;;
19879;SDS011;10102;50.828;4.416;2023-08-30T00:17:42;5.68;;;3.92;;
19879;SDS011;10102;50.828;4.416;2023-08-30T00:20:09;6.70;;;3.90;;
19879;SDS011;10102;50.828;4.416;2023-08-30T00:22:35;4.97;;;3.67;;
19879;SDS011;10102;50.828;4.416;2023-08-30T00:25:00;6.22;;;3.85;;
19879;SDS011;10102;50.828;4.416;2023-08-30T00:27:26;5.07;;;3.95;;
19879;SDS011;10102;50.828;4.416;2023-08-30T00:29:52;7.53;;;3.90;;
19879;SDS011;10102;50.828;4.416;2023-08-30T00:32:18;6.32;;;3.80;;
19879;SDS011;10102;50.828;4.416;2023-08-30T00:34:44;6.05;;;3.85;;
19879;SDS011;10102;50.828;4.416;2023-08-30T00:37:10;7.45;;;3.67;;
19879;SDS011;10102;50.828;4.416;2023-08-30T00:39:39;6.85;;;3.70;;
19879;SDS011;10102;50.828;4.416;2023-08-30T00:42:05;8.05;;;3.75;;
19879;SDS011;10102;50.828;4.416;2023-08-30T00:44:33;5.22;;;3.40;;
19879;SDS011;10102;50.828;4.416;2023-08-30T00:46:59;5.05;;;3.95;;
19879;SDS011;10102;50.828;4.416;2023-08-30T00:49:29;8.65;;;4.32;;
19879;SDS011;10102;50.828;4.416;2023-08-30T00:51:56;5.25;;;3.72;;
19879;SDS011;10102;50.828;4.416;2023-08-30T00:54:23;6.88;;;4.00;;
19879;SDS011;10102;50.828;4.416;2023-08-30T00:56:49;5.45;;;4.03;;
19879;SDS011;10102;50.828;4.416;2023-08-30T00:59:16;5.93;;;3.30;;
19879;SDS011;10102;50.828;4.416;2023-08-30T01:01:42;6.80;;;3.78;;
19879;SDS011;10102;50.828;4.416;2023-08-30T01:04:09;5.78;;;3.78;;
19879;SDS011;10102;50.828;4.416;2023-08-30T01:06:35;6.60;;;3.58;;
19879;SDS011;10102;50.828;4.416;2023-08-30T01:09:01;4.82;;;4.00;;
19879;SDS011;10102;50.828;4.416;2023-08-30T01:14:38;8.55;;;3.67;;
19879;SDS011;10102;50.828;4.416;2023-08-30T01:17:10;6.18;;;3.72;;
19879;SDS011;10102;50.828;4.416;2023-08-30T01:19:48;9.02;;;3.97;;
19879;SDS011;10102;50.828;4.416;2023-08-30T01:25:29;6.32;;;3.90;;
19879;SDS011;10102;50.828;4.416;2023-08-30T01:28:03;9.02;;;4.63;;
19879;SDS011;10102;50.828;4.416;2023-08-30T01:30:32;7.57;;;5.05;;
19879;SDS011;10102;50.828;4.416;2023-08-30T01:33:00;9.48;;;4.55;;
19879;SDS011;10102;50.828;4.416;2023-08-30T01:35:27;8.38;;;5.00;;
19879;SDS011;10102;50.828;4.416;2023-08-30T01:37:58;6.10;;;4.65;;
19879;SDS011;10102;50.828;4.416;2023-08-30T01:40:26;10.88;;;5.10;;
19879;SDS011;10102;50.828;4.416;2023-08-30T01:42:53;7.00;;;4.93;;
19879;SDS011;10102;50.828;4.416;2023-08-30T01:45:20;10.30;;;5.68;;
19879;SDS011;10102;50.828;4.416;2023-08-30T01:47:47;10.38;;;5.57;;
19879;SDS011;10102;50.828;4.416;2023-08-30T01:50:13;10.13;;;5.07;;
19879;SDS011;10102;50.828;4.416;2023-08-30T01:52:41;13.15;;;5.32;;
19879;SDS011;10102;50.828;4.416;2023-08-30T01:55:07;8.10;;;4.97;;
19879;SDS011;10102;50.828;4.416;2023-08-30T01:57:34;7.20;;;4.40;;
19879;SDS011;10102;50.828;4.416;2023-08-30T02:00:00;8.05;;;5.38;;
19879;SDS011;10102;50.828;4.416;2023-08-30T02:02:29;15.00;;;5.47;;
19879;SDS011;10102;50.828;4.416;2023-08-30T02:04:55;7.13;;;4.75;;
19879;SDS011;10102;50.828;4.416;2023-08-30T02:07:25;8.20;;;5.03;;
19879;SDS011;10102;50.828;4.416;2023-08-30T02:12:34;7.85;;;4.72;;
19879;SDS011;10102;50.828;4.416;2023-08-30T02:15:12;8.88;;;4.90;;
19879;SDS011;10102;50.828;4.416;2023-08-30T02:17:39;7.45;;;5.35;;
19879;SDS011;10102;50.828;4.416;2023-08-30T02:20:05;8.32;;;5.40;;
19879;SDS011;10102;50.828;4.416;2023-08-30T02:22:32;7.00;;;4.80;;
19879;SDS011;10102;50.828;4.416;2023-08-30T02:24:59;8.50;;;5.05;;
19879;SDS011;10102;50.828;4.416;2023-08-30T02:27:29;10.48;;;5.60;;
19879;SDS011;10102;50.828;4.416;2023-08-30T02:29:56;13.27;;;6.25;;
19879;SDS011;10102;50.828;4.416;2023-08-30T02:32:21;8.50;;;5.78;;
19879;SDS011;10102;50.828;4.416;2023-08-30T02:34:52;8.65;;;5.75;;
19879;SDS011;10102;50.828;4.416;2023-08-30T02:37:18;13.85;;;5.53;;
19879;SDS011;10102;50.828;4.416;2023-08-30T02:39:44;9.05;;;5.85;;
19879;SDS011;10102;50.828;4.416;2023-08-30T02:42:10;7.95;;;5.90;;
19879;SDS011;10102;50.828;4.416;2023-08-30T02:44:36;12.85;;;5.75;;
19879;SDS011;10102;50.828;4.416;2023-08-30T02:47:02;8.82;;;6.07;;
19879;SDS011;10102;50.828;4.416;2023-08-30T02:49:28;13.43;;;6.68;;
19879;SDS011;10102;50.828;4.416;2023-08-30T02:51:54;9.48;;;5.95;;
19879;SDS011;10102;50.828;4.416;2023-08-30T02:54:20;16.05;;;6.25;;
19879;SDS011;10102;50.828;4.416;2023-08-30T02:56:47;10.30;;;6.60;;
19879;SDS011;10102;50.828;4.416;2023-08-30T02:59:13;9.98;;;6.35;;
19879;SDS011;10102;50.828;4.416;2023-08-30T03:01:39;13.52;;;6.28;;
19879;SDS011;10102;50.828;4.416;2023-08-30T03:04:05;13.30;;;7.07;;
19879;SDS011;10102;50.828;4.416;2023-08-30T03:06:34;9.77;;;6.40;;
19879;SDS011;10102;50.828;4.416;2023-08-30T03:09:00;14.00;;;6.53;;
19879;SDS011;10102;50.828;4.416;2023-08-30T03:11:26;11.63;;;6.35;;
19879;SDS011;10102;50.828;4.416;2023-08-30T03:13:55;10.65;;;6.43;;
19879;SDS011;10102;50.828;4.416;2023-08-30T03:16:21;14.43;;;6.97;;
19879;SDS011;10102;50.828;4.416;2023-08-30T03:18:47;15.38;;;6.53;;
19879;SDS011;10102;50.828;4.416;2023-08-30T03:21:13;12.55;;;6.53;;
19879;SDS011;10102;50.828;4.416;2023-08-30T03:23:40;12.25;;;6.80;;
19879;SDS011;10102;50.828;4.416;2023-08-30T03:26:10;10.95;;;6.43;;
19879;SDS011;10102;50.828;4.416;2023-08-30T03:28:37;18.58;;;7.45;;
19879;SDS011;10102;50.828;4.416;2023-08-30T03:31:10;12.68;;;6.97;;
19879;SDS011;10102;50.828;4.416;2023-08-30T03:33:39;11.70;;;6.63;;
19879;SDS011;10102;50.828;4.416;2023-08-30T03:36:07;12.15;;;6.22;;
19879;SDS011;10102;50.828;4.416;2023-08-30T03:38:34;9.38;;;6.78;;
19879;SDS011;10102;50.828;4.416;2023-08-30T03:41:00;10.45;;;5.93;;
19879;SDS011;10102;50.828;4.416;2023-08-30T03:43:25;9.15;;;5.65;;
19879;SDS011;10102;50.828;4.416;2023-08-30T03:45:51;12.80;;;5.68;;
19879;SDS011;10102;50.828;4.416;2023-08-30T03:48:17;9.18;;;5.93;;
19879;SDS011;10102;50.828;4.416;2023-08-30T03:50:43;11.30;;;5.88;;
19879;SDS011;10102;50.828;4.416;2023-08-30T03:53:09;12.82;;;6.68;;
19879;SDS011;10102;50.828;4.416;2023-08-30T03:55:35;15.20;;;6.50;;
19879;SDS011;10102;50.828;4.416;2023-08-30T03:58:01;9.52;;;6.35;;
19879;SDS011;10102;50.828;4.416;2023-08-30T04:00:26;11.38;;;6.18;;
19879;SDS011;10102;50.828;4.416;2023-08-30T04:02:52;11.57;;;5.88;;
19879;SDS011;10102;50.828;4.416;2023-08-30T04:05:18;11.45;;;5.50;;
19879;SDS011;10102;50.828;4.416;2023-08-30T04:07:44;10.65;;;5.40;;
19879;SDS011;10102;50.828;4.416;2023-08-30T04:10:10;11.23;;;5.50;;
19879;SDS011;10102;50.828;4.416;2023-08-30T04:12:35;10.55;;;5.75;;
19879;SDS011;10102;50.828;4.416;2023-08-30T04:15:01;12.88;;;5.70;;
19879;SDS011;10102;50.828;4.416;2023-08-30T04:17:27;12.02;;;6.50;;
19879;SDS011;10102;50.828;4.416;2023-08-30T04:19:53;13.48;;;6.20;;
19879;SDS011;10102;50.828;4.416;2023-08-30T04:22:19;14.13;;;6.00;;
19879;SDS011;10102;50.828;4.416;2023-08-30T04:24:46;9.77;;;5.60;;
19879;SDS011;10102;50.828;4.416;2023-08-30T04:27:12;11.80;;;6.57;;
19879;SDS011;10102;50.828;4.416;2023-08-30T04:29:38;14.00;;;6.18;;
19879;SDS011;10102;50.828;4.416;2023-08-30T04:32:04;13.88;;;6.60;;
19879;SDS011;10102;50.828;4.416;2023-08-30T04:34:30;14.63;;;6.35;;
19879;SDS011;10102;50.828;4.416;2023-08-30T04:36:56;10.80;;;5.65;;
19879;SDS011;10102;50.828;4.416;2023-08-30T04:39:22;9.82;;;6.10;;
19879;SDS011;10102;50.828;4.416;2023-08-30T04:41:48;11.57;;;5.50;;
19879;SDS011;10102;50.828;4.416;2023-08-30T04:44:13;10.60;;;5.90;;
19879;SDS011;10102;50.828;4.416;2023-08-30T04:46:39;11.23;;;5.35;;
19879;SDS011;10102;50.828;4.416;2023-08-30T04:49:05;12.60;;;6.63;;
19879;SDS011;10102;50.828;4.416;2023-08-30T04:51:31;15.75;;;6.68;;
19879;SDS011;10102;50.828;4.416;2023-08-30T04:53:57;13.57;;;6.47;;
19879;SDS011;10102;50.828;4.416;2023-08-30T04:56:23;11.73;;;6.53;;
19879;SDS011;10102;50.828;4.416;2023-08-30T04:58:49;14.50;;;6.47;;
19879;SDS011;10102;50.828;4.416;2023-08-30T05:01:15;12.55;;;6.53;;
19879;SDS011;10102;50.828;4.416;2023-08-30T05:03:42;14.70;;;6.22;;
19879;SDS011;10102;50.828;4.416;2023-08-30T05:06:08;14.48;;;5.93;;
19879;SDS011;10102;50.828;4.416;2023-08-30T05:08:34;15.63;;;6.07;;
19879;SDS011;10102;50.828;4.416;2023-08-30T05:10:59;14.68;;;5.68;;
19879;SDS011;10102;50.828;4.416;2023-08-30T05:13:25;10.95;;;5.93;;
19879;SDS011;10102;50.828;4.416;2023-08-30T05:15:51;13.90;;;6.28;;
19879;SDS011;10102;50.828;4.416;2023-08-30T05:18:18;12.90;;;6.38;;
19879;SDS011;10102;50.828;4.416;2023-08-30T05:20:44;11.75;;;6.43;;
19879;SDS011;10102;50.828;4.416;2023-08-30T05:23:10;13.77;;;6.10;;
19879;SDS011;10102;50.828;4.416;2023-08-30T05:25:35;18.65;;;6.13;;
19879;SDS011;10102;50.828;4.416;2023-08-30T05:28:01;9.85;;;6.00;;
19879;SDS011;10102;50.828;4.416;2023-08-30T05:30:27;9.00;;;5.72;;
19879;SDS011;10102;50.828;4.416;2023-08-30T05:32:53;9.98;;;5.75;;
19879;SDS011;10102;50.828;4.416;2023-08-30T05:35:19;8.80;;;6.03;;
19879;SDS011;10102;50.828;4.416;2023-08-30T05:37:44;9.65;;;6.50;;
19879;SDS011;10102;50.828;4.416;2023-08-30T05:40:10;11.07;;;5.97;;
19879;SDS011;10102;50.828;4.416;2023-08-30T05:42:40;11.35;;;6.75;;
19879;SDS011;10102;50.828;4.416;2023-08-30T05:45:06;11.40;;;6.38;;
19879;SDS011;10102;50.828;4.416;2023-08-30T05:47:32;8.43;;;5.90;;
19879;SDS011;10102;50.828;4.416;2023-08-30T05:49:58;12.45;;;7.70;;
19879;SDS011;10102;50.828;4.416;2023-08-30T05:52:24;8.43;;;6.45;;
19879;SDS011;10102;50.828;4.416;2023-08-30T05:54:50;12.90;;;6.88;;
19879;SDS011;10102;50.828;4.416;2023-08-30T05:57:16;12.52;;;6.43;;
19879;SDS011;10102;50.828;4.416;2023-08-30T05:59:42;8.18;;;5.65;;
19879;SDS011;10102;50.828;4.416;2023-08-30T06:02:08;13.98;;;6.35;;
19879;SDS011;10102;50.828;4.416;2023-08-30T06:04:34;7.28;;;5.63;;
19879;SDS011;10102;50.828;4.416;2023-08-30T06:07:00;10.65;;;5.53;;
19879;SDS011;10102;50.828;4.416;2023-08-30T06:09:26;11.48;;;5.07;;
19879;SDS011;10102;50.828;4.416;2023-08-30T06:11:52;10.52;;;5.70;;
19879;SDS011;10102;50.828;4.416;2023-08-30T06:14:18;8.18;;;5.88;;
19879;SDS011;10102;50.828;4.416;2023-08-30T06:16:43;8.05;;;4.97;;
19879;SDS011;10102;50.828;4.416;2023-08-30T06:19:12;6.18;;;4.57;;
19879;SDS011;10102;50.828;4.416;2023-08-30T06:21:39;7.97;;;4.82;;
19879;SDS011;10102;50.828;4.416;2023-08-30T06:24:05;6.07;;;4.75;;
19879;SDS011;10102;50.828;4.416;2023-08-30T06:26:31;8.23;;;5.38;;
19879;SDS011;10102;50.828;4.416;2023-08-30T06:28:58;8.65;;;5.18;;
19879;SDS011;10102;50.828;4.416;2023-08-30T06:31:23;8.32;;;5.28;;
19879;SDS011;10102;50.828;4.416;2023-08-30T06:33:49;11.75;;;5.90;;
19879;SDS011;10102;50.828;4.416;2023-08-30T06:36:16;8.38;;;4.82;;
19879;SDS011;10102;50.828;4.416;2023-08-30T06:38:42;5.85;;;4.55;;
19879;SDS011;10102;50.828;4.416;2023-08-30T06:41:08;17.02;;;5.93;;
19879;SDS011;10102;50.828;4.416;2023-08-30T06:43:34;7.53;;;5.20;;
19879;SDS011;10102;50.828;4.416;2023-08-30T06:46:00;12.00;;;5.30;;
19879;SDS011;10102;50.828;4.416;2023-08-30T06:48:26;12.57;;;5.70;;
19879;SDS011;10102;50.828;4.416;2023-08-30T06:50:52;13.75;;;6.10;;
19879;SDS011;10102;50.828;4.416;2023-08-30T06:53:18;10.07;;;5.95;;
19879;SDS011;10102;50.828;4.416;2023-08-30T06:55:44;36.17;;;6.72;;
19879;SDS011;10102;50.828;4.416;2023-08-30T06:58:10;11.57;;;6.20;;
19879;SDS011;10102;50.828;4.416;2023-08-30T07:00:36;14.57;;;6.40;;
19879;SDS011;10102;50.828;4.416;2023-08-30T07:03:02;9.30;;;6.30;;
19879;SDS011;10102;50.828;4.416;2023-08-30T07:05:28;8.88;;;6.35;;
19879;SDS011;10102;50.828;4.416;2023-08-30T07:07:53;8.95;;;6.10;;
19879;SDS011;10102;50.828;4.416;2023-08-30T07:10:19;10.35;;;5.70;;
19879;SDS011;10102;50.828;4.416;2023-08-30T07:12:45;7.68;;;5.38;;
19879;SDS011;10102;50.828;4.416;2023-08-30T07:15:13;8.30;;;5.57;;
19879;SDS011;10102;50.828;4.416;2023-08-30T07:17:41;8.93;;;5.07;;
19879;SDS011;10102;50.828;4.416;2023-08-30T07:20:07;7.57;;;5.30;;
19879;SDS011;10102;50.828;4.416;2023-08-30T07:22:34;10.30;;;5.22;;
19879;SDS011;10102;50.828;4.416;2023-08-30T07:24:59;7.72;;;5.00;;
19879;SDS011;10102;50.828;4.416;2023-08-30T07:27:25;9.07;;;5.25;;
19879;SDS011;10102;50.828;4.416;2023-08-30T07:29:53;7.95;;;5.25;;
19879;SDS011;10102;50.828;4.416;2023-08-30T07:32:19;7.63;;;5.47;;
19879;SDS011;10102;50.828;4.416;2023-08-30T07:34:45;12.30;;;6.35;;
19879;SDS011;10102;50.828;4.416;2023-08-30T07:37:18;7.32;;;5.72;;
19879;SDS011;10102;50.828;4.416;2023-08-30T07:39:45;7.72;;;5.30;;
19879;SDS011;10102;50.828;4.416;2023-08-30T07:42:11;8.85;;;5.72;;
19879;SDS011;10102;50.828;4.416;2023-08-30T07:44:37;10.60;;;5.30;;
19879;SDS011;10102;50.828;4.416;2023-08-30T07:47:02;16.48;;;5.68;;
19879;SDS011;10102;50.828;4.416;2023-08-30T07:49:28;8.70;;;4.93;;
19879;SDS011;10102;50.828;4.416;2023-08-30T07:51:54;8.23;;;5.00;;
19879;SDS011;10102;50.828;4.416;2023-08-30T07:54:20;8.18;;;5.25;;
19879;SDS011;10102;50.828;4.416;2023-08-30T07:56:45;21.85;;;7.57;;
19879;SDS011;10102;50.828;4.416;2023-08-30T07:59:12;11.65;;;4.53;;
19879;SDS011;10102;50.828;4.416;2023-08-30T08:01:38;5.78;;;4.15;;
19879;SDS011;10102;50.828;4.416;2023-08-30T08:04:03;8.45;;;4.53;;
19879;SDS011;10102;50.828;4.416;2023-08-30T08:06:29;9.18;;;4.60;;
19879;SDS011;10102;50.828;4.416;2023-08-30T08:08:55;6.97;;;4.65;;
19879;SDS011;10102;50.828;4.416;2023-08-30T08:11:21;7.32;;;4.53;;
19879;SDS011;10102;50.828;4.416;2023-08-30T08:13:47;8.00;;;4.35;;
19879;SDS011;10102;50.828;4.416;2023-08-30T08:16:13;6.45;;;4.57;;
19879;SDS011;10102;50.828;4.416;2023-08-30T08:18:39;6.40;;;4.13;;
19879;SDS011;10102;50.828;4.416;2023-08-30T08:21:05;6.00;;;4.53;;
19879;SDS011;10102;50.828;4.416;2023-08-30T08:23:30;6.22;;;4.57;;
19879;SDS011;10102;50.828;4.416;2023-08-30T08:25:59;8.38;;;5.32;;
19879;SDS011;10102;50.828;4.416;2023-08-30T08:28:27;7.20;;;4.45;;
19879;SDS011;10102;50.828;4.416;2023-08-30T08:30:53;7.97;;;4.10;;
19879;SDS011;10102;50.828;4.416;2023-08-30T08:33:19;5.57;;;4.13;;
19879;SDS011;10102;50.828;4.416;2023-08-30T08:35:48;7.95;;;4.55;;
19879;SDS011;10102;50.828;4.416;2023-08-30T08:38:14;13.57;;;5.65;;
19879;SDS011;10102;50.828;4.416;2023-08-30T08:40:41;8.00;;;5.07;;
19879;SDS011;10102;50.828;4.416;2023-08-30T08:43:07;11.68;;;6.65;;
19879;SDS011;10102;50.828;4.416;2023-08-30T08:45:40;10.80;;;6.45;;
19879;SDS011;10102;50.828;4.416;2023-08-30T08:48:07;13.90;;;6.85;;
19879;SDS011;10102;50.828;4.416;2023-08-30T08:50:34;10.65;;;5.80;;
19879;SDS011;10102;50.828;4.416;2023-08-30T08:53:01;10.52;;;5.82;;
19879;SDS011;10102;50.828;4.416;2023-08-30T08:55:29;12.10;;;6.43;;
19879;SDS011;10102;50.828;4.416;2023-08-30T08:57:59;11.35;;;6.38;;
19879;SDS011;10102;50.828;4.416;2023-08-30T09:00:27;9.25;;;6.05;;
19879;SDS011;10102;50.828;4.416;2023-08-30T09:02:56;7.97;;;5.80;;
19879;SDS011;10102;50.828;4.416;2023-08-30T09:05:22;12.35;;;6.72;;
19879;SDS011;10102;50.828;4.416;2023-08-30T09:07:48;9.85;;;5.72;;
19879;SDS011;10102;50.828;4.416;2023-08-30T09:10:18;9.65;;;5.72;;
19879;SDS011;10102;50.828;4.416;2023-08-30T09:12:45;7.22;;;5.35;;
19879;SDS011;10102;50.828;4.416;2023-08-30T09:15:11;6.32;;;4.78;;
19879;SDS011;10102;50.828;4.416;2023-08-30T09:17:37;8.70;;;5.32;;
19879;SDS011;10102;50.828;4.416;2023-08-30T09:20:10;8.23;;;5.47;;
19879;SDS011;10102;50.828;4.416;2023-08-30T09:22:38;7.55;;;5.30;;
19879;SDS011;10102;50.828;4.416;2023-08-30T09:25:08;7.30;;;5.32;;
19879;SDS011;10102;50.828;4.416;2023-08-30T09:27:35;9.75;;;5.38;;
19879;SDS011;10102;50.828;4.416;2023-08-30T09:30:04;7.13;;;6.00;;
19879;SDS011;10102;50.828;4.416;2023-08-30T09:32:31;13.35;;;5.32;;
19879;SDS011;10102;50.828;4.416;2023-08-30T09:34:56;12.75;;;5.28;;
19879;SDS011;10102;50.828;4.416;2023-08-30T09:37:22;7.55;;;4.88;;
19879;SDS011;10102;50.828;4.416;2023-08-30T09:39:52;8.38;;;5.72;;
19879;SDS011;10102;50.828;4.416;2023-08-30T09:42:18;7.18;;;4.90;;
19879;SDS011;10102;50.828;4.416;2023-08-30T09:44:44;6.80;;;5.80;;
19879;SDS011;10102;50.828;4.416;2023-08-30T09:47:10;8.60;;;6.03;;
19879;SDS011;10102;50.828;4.416;2023-08-30T09:49:44;7.22;;;5.20;;
19879;SDS011;10102;50.828;4.416;2023-08-30T09:52:15;9.63;;;6.38;;
19879;SDS011;10102;50.828;4.416;2023-08-30T09:54:42;9.20;;;5.95;;
19879;SDS011;10102;50.828;4.416;2023-08-30T09:57:10;9.35;;;5.70;;
19879;SDS011;10102;50.828;4.416;2023-08-30T09:59:36;8.23;;;5.72;;
19879;SDS011;10102;50.828;4.416;2023-08-30T10:02:04;6.80;;;5.50;;
19879;SDS011;10102;50.828;4.416;2023-08-30T10:04:31;8.80;;;5.20;;
19879;SDS011;10102;50.828;4.416;2023-08-30T10:06:58;9.38;;;5.40;;
19879;SDS011;10102;50.828;4.416;2023-08-30T10:09:24;7.00;;;5.72;;
19879;SDS011;10102;50.828;4.416;2023-08-30T10:11:50;8.43;;;6.53;;
19879;SDS011;10102;50.828;4.416;2023-08-30T10:14:16;9.23;;;6.35;;
19879;SDS011;10102;50.828;4.416;2023-08-30T10:16:46;10.00;;;7.30;;
19879;SDS011;10102;50.828;4.416;2023-08-30T10:22:02;10.68;;;7.47;;
19879;SDS011;10102;50.828;4.416;2023-08-30T10:25:02;14.05;;;7.97;;
19879;SDS011;10102;50.828;4.416;2023-08-30T10:27:33;12.63;;;8.23;;
19879;SDS011;10102;50.828;4.416;2023-08-30T10:30:01;12.15;;;7.93;;
19879;SDS011;10102;50.828;4.416;2023-08-30T10:32:29;14.23;;;9.50;;
19879;SDS011;10102;50.828;4.416;2023-08-30T10:35:00;13.85;;;9.02;;
19879;SDS011;10102;50.828;4.416;2023-08-30T10:37:27;11.48;;;7.57;;
19879;SDS011;10102;50.828;4.416;2023-08-30T10:39:59;13.90;;;7.80;;
19879;SDS011;10102;50.828;4.416;2023-08-30T10:42:28;11.45;;;7.75;;
19879;SDS011;10102;50.828;4.416;2023-08-30T10:47:31;9.93;;;7.47;;
19879;SDS011;10102;50.828;4.416;2023-08-30T10:50:04;8.68;;;6.10;;
19879;SDS011;10102;50.828;4.416;2023-08-30T10:52:31;8.23;;;6.07;;
19879;SDS011;10102;50.828;4.416;2023-08-30T10:55:04;8.48;;;6.47;;
19879;SDS011;10102;50.828;4.416;2023-08-30T10:57:34;9.93;;;5.78;;
19879;SDS011;10102;50.828;4.416;2023-08-30T11:00:07;9.15;;;6.18;;
19879;SDS011;10102;50.828;4.416;2023-08-30T11:02:39;6.68;;;5.60;;
19879;SDS011;10102;50.828;4.416;2023-08-30T11:05:10;12.85;;;6.15;;
19879;SDS011;10102;50.828;4.416;2023-08-30T11:07:36;6.75;;;5.40;;
19879;SDS011;10102;50.828;4.416;2023-08-30T11:10:04;6.22;;;5.25;;
19879;SDS011;10102;50.828;4.416;2023-08-30T11:12:31;7.95;;;5.35;;
19879;SDS011;10102;50.828;4.416;2023-08-30T11:14:56;9.35;;;5.80;;
19879;SDS011;10102;50.828;4.416;2023-08-30T11:17:22;7.75;;;5.18;;
19879;SDS011;10102;50.828;4.416;2023-08-30T11:19:57;9.80;;;5.35;;
19879;SDS011;10102;50.828;4.416;2023-08-30T11:22:29;12.15;;;5.47;;
19879;SDS011;10102;50.828;4.416;2023-08-30T11:24:55;11.65;;;5.97;;
19879;SDS011;10102;50.828;4.416;2023-08-30T11:27:21;7.43;;;5.35;;
19879;SDS011;10102;50.828;4.416;2023-08-30T11:29:47;8.93;;;5.57;;
19879;SDS011;10102;50.828;4.416;2023-08-30T11:32:13;14.57;;;5.43;;
19879;SDS011;10102;50.828;4.416;2023-08-30T11:34:38;11.65;;;6.25;;
19879;SDS011;10102;50.828;4.416;2023-08-30T11:37:04;10.43;;;6.30;;
19879;SDS011;10102;50.828;4.416;2023-08-30T11:39:30;8.15;;;5.38;;
19879;SDS011;10102;50.828;4.416;2023-08-30T11:41:56;8.88;;;4.68;;
19879;SDS011;10102;50.828;4.416;2023-08-30T11:44:28;9.05;;;4.70;;
19879;SDS011;10102;50.828;4.416;2023-08-30T11:47:00;8.50;;;4.57;;
19879;SDS011;10102;50.828;4.416;2023-08-30T11:49:29;12.32;;;4.43;;
19879;SDS011;10102;50.828;4.416;2023-08-30T11:51:55;9.27;;;4.07;;
19879;SDS011;10102;50.828;4.416;2023-08-30T11:54:25;11.73;;;3.75;;
19879;SDS011;10102;50.828;4.416;2023-08-30T11:56:51;10.75;;;3.42;;
19879;SDS011;10102;50.828;4.416;2023-08-30T11:59:18;10.60;;;3.05;;
19879;SDS011;10102;50.828;4.416;2023-08-30T12:01:52;7.47;;;2.60;;
19879;SDS011;10102;50.828;4.416;2023-08-30T12:04:18;7.53;;;2.70;;
19879;SDS011;10102;50.828;4.416;2023-08-30T12:06:44;9.30;;;2.97;;
19879;SDS011;10102;50.828;4.416;2023-08-30T12:09:18;11.23;;;2.40;;
19879;SDS011;10102;50.828;4.416;2023-08-30T12:11:46;10.93;;;2.55;;
19879;SDS011;10102;50.828;4.416;2023-08-30T12:14:13;8.57;;;2.10;;
19879;SDS011;10102;50.828;4.416;2023-08-30T12:16:39;8.90;;;2.30;;
19879;SDS011;10102;50.828;4.416;2023-08-30T12:19:09;10.48;;;3.00;;
19879;SDS011;10102;50.828;4.416;2023-08-30T12:21:43;17.48;;;2.63;;
19879;SDS011;10102;50.828;4.416;2023-08-30T12:24:09;7.03;;;1.98;;
19879;SDS011;10102;50.828;4.416;2023-08-30T12:26:35;7.43;;;2.22;;
19879;SDS011;10102;50.828;4.416;2023-08-30T12:29:04;8.05;;;2.05;;
19879;SDS011;10102;50.828;4.416;2023-08-30T12:31:33;9.27;;;2.50;;
19879;SDS011;10102;50.828;4.416;2023-08-30T12:33:59;7.40;;;2.10;;
19879;SDS011;10102;50.828;4.416;2023-08-30T12:36:25;7.75;;;2.00;;
19879;SDS011;10102;50.828;4.416;2023-08-30T12:38:51;13.45;;;3.05;;
19879;SDS011;10102;50.828;4.416;2023-08-30T12:41:17;9.52;;;2.47;;
19879;SDS011;10102;50.828;4.416;2023-08-30T12:43:44;5.82;;;2.22;;
19879;SDS011;10102;50.828;4.416;2023-08-30T12:46:09;8.98;;;2.47;;
19879;SDS011;10102;50.828;4.416;2023-08-30T12:48:35;6.82;;;2.72;;
19879;SDS011;10102;50.828;4.416;2023-08-30T12:51:01;10.23;;;2.40;;
19879;SDS011;10102;50.828;4.416;2023-08-30T12:53:28;7.18;;;2.22;;
19879;SDS011;10102;50.828;4.416;2023-08-30T12:55:54;7.88;;;2.20;;
19879;SDS011;10102;50.828;4.416;2023-08-30T12:58:20;8.13;;;2.40;;
19879;SDS011;10102;50.828;4.416;2023-08-30T13:00:45;6.15;;;2.13;;
19879;SDS011;10102;50.828;4.416;2023-08-30T13:03:11;6.82;;;2.03;;
19879;SDS011;10102;50.828;4.416;2023-08-30T13:05:37;6.78;;;2.30;;
19879;SDS011;10102;50.828;4.416;2023-08-30T13:08:03;6.47;;;1.98;;
19879;SDS011;10102;50.828;4.416;2023-08-30T13:10:29;6.32;;;1.48;;
19879;SDS011;10102;50.828;4.416;2023-08-30T13:12:55;7.30;;;1.92;;
19879;SDS011;10102;50.828;4.416;2023-08-30T13:15:22;7.97;;;2.15;;
19879;SDS011;10102;50.828;4.416;2023-08-30T13:17:48;7.43;;;2.08;;
19879;SDS011;10102;50.828;4.416;2023-08-30T13:20:14;6.97;;;2.17;;
19879;SDS011;10102;50.828;4.416;2023-08-30T13:22:40;5.82;;;2.22;;
19879;SDS011;10102;50.828;4.416;2023-08-30T13:25:05;6.43;;;1.77;;
19879;SDS011;10102;50.828;4.416;2023-08-30T13:27:33;5.90;;;1.63;;
19879;SDS011;10102;50.828;4.416;2023-08-30T13:29:58;6.18;;;1.70;;
19879;SDS011;10102;50.828;4.416;2023-08-30T13:32:24;9.13;;;1.75;;
19879;SDS011;10102;50.828;4.416;2023-08-30T13:34:50;7.57;;;1.95;;
19879;SDS011;10102;50.828;4.416;2023-08-30T13:37:16;3.78;;;1.33;;
19879;SDS011;10102;50.828;4.416;2023-08-30T13:39:42;7.85;;;1.77;;
19879;SDS011;10102;50.828;4.416;2023-08-30T13:42:08;7.13;;;1.70;;
19879;SDS011;10102;50.828;4.416;2023-08-30T13:44:35;5.20;;;1.60;;
19879;SDS011;10102;50.828;4.416;2023-08-30T13:47:05;7.20;;;1.80;;
19879;SDS011;10102;50.828;4.416;2023-08-30T13:49:31;5.95;;;1.67;;
19879;SDS011;10102;50.828;4.416;2023-08-30T13:51:57;5.68;;;1.80;;
19879;SDS011;10102;50.828;4.416;2023-08-30T13:54:23;9.13;;;2.05;;
19879;SDS011;10102;50.828;4.416;2023-08-30T13:56:50;7.00;;;1.70;;
19879;SDS011;10102;50.828;4.416;2023-08-30T13:59:16;4.63;;;1.58;;
19879;SDS011;10102;50.828;4.416;2023-08-30T14:01:42;7.47;;;1.58;;
19879;SDS011;10102;50.828;4.416;2023-08-30T14:04:08;4.97;;;1.48;;
19879;SDS011;10102;50.828;4.416;2023-08-30T14:06:34;3.60;;;1.08;;
19879;SDS011;10102;50.828;4.416;2023-08-30T14:09:00;5.43;;;1.75;;
19879;SDS011;10102;50.828;4.416;2023-08-30T14:11:26;5.10;;;1.40;;
19879;SDS011;10102;50.828;4.416;2023-08-30T14:13:52;3.83;;;1.40;;
19879;SDS011;10102;50.828;4.416;2023-08-30T14:16:18;7.55;;;1.63;;
19879;SDS011;10102;50.828;4.416;2023-08-30T14:18:44;8.50;;;1.83;;
19879;SDS011;10102;50.828;4.416;2023-08-30T14:21:10;4.90;;;1.65;;
19879;SDS011;10102;50.828;4.416;2023-08-30T14:23:35;5.18;;;1.40;;
19879;SDS011;10102;50.828;4.416;2023-08-30T14:26:05;5.53;;;1.50;;
19879;SDS011;10102;50.828;4.416;2023-08-30T14:28:35;8.27;;;1.85;;
19879;SDS011;10102;50.828;4.416;2023-08-30T14:31:02;12.60;;;1.90;;
19879;SDS011;10102;50.828;4.416;2023-08-30T14:33:29;9.85;;;1.40;;
19879;SDS011;10102;50.828;4.416;2023-08-30T14:35:55;5.20;;;1.58;;
19879;SDS011;10102;50.828;4.416;2023-08-30T14:38:22;7.15;;;1.50;;
19879;SDS011;10102;50.828;4.416;2023-08-30T14:40:58;2.42;;;1.25;;
19879;SDS011;10102;50.828;4.416;2023-08-30T14:43:24;3.53;;;1.70;;
19879;SDS011;10102;50.828;4.416;2023-08-30T14:45:51;5.80;;;1.75;;
19879;SDS011;10102;50.828;4.416;2023-08-30T14:48:23;5.55;;;1.60;;
19879;SDS011;10102;50.828;4.416;2023-08-30T14:50:52;4.63;;;1.52;;
19879;SDS011;10102;50.828;4.416;2023-08-30T14:53:18;7.82;;;1.48;;
19879;SDS011;10102;50.828;4.416;2023-08-30T14:55:44;8.40;;;1.60;;